createdAt,value
2022-08-05T00:01:20.207Z,100652.56
2022-08-05T00:11:24.026Z,100639.91
2022-08-05T00:21:35.989Z,100631.91
2022-08-05T00:31:53.028Z,100635.69
2022-08-05T00:41:57.097Z,100635.28
2022-08-05T00:51:59.433Z,100629.19
2022-08-05T01:02:01.816Z,100617.34
2022-08-05T01:12:18.218Z,100616.56
2022-08-05T01:22:34.102Z,100620.00
2022-08-05T01:32:40.900Z,100608.50
2022-08-05T01:42:51.163Z,100612.72
2022-08-05T01:52:55.992Z,100605.50
2022-08-05T02:03:04.501Z,100608.06
2022-08-05T02:13:19.000Z,100606.59
2022-08-05T02:23:29.276Z,100607.72
2022-08-05T02:33:40.708Z,100611.56
2022-08-05T02:44:05.966Z,100612.34
2022-08-05T02:54:35.592Z,100619.50
2022-08-05T03:04:36.385Z,100616.34
2022-08-05T03:14:46.122Z,100608.66
2022-08-05T03:24:52.239Z,100603.22
2022-08-05T03:34:54.862Z,100602.50
2022-08-05T03:44:57.414Z,100598.72
2022-08-05T03:56:01.972Z,100608.28
2022-08-05T04:05:34.076Z,100614.81
2022-08-05T04:15:37.039Z,100609.22
2022-08-05T04:25:56.693Z,100623.81
2022-08-05T04:36:11.187Z,100623.47
2022-08-05T04:46:27.949Z,100621.53
2022-08-05T04:56:34.876Z,100618.75
2022-08-05T05:06:49.377Z,100611.63
2022-08-05T05:17:01.090Z,100605.13
2022-08-05T05:27:04.138Z,100594.50
2022-08-05T05:37:06.483Z,100612.56
2022-08-05T05:47:21.399Z,100606.75
2022-08-05T05:57:24.582Z,100611.31
2022-08-05T06:07:57.535Z,100617.22
2022-08-05T06:18:03.828Z,100618.47
2022-08-05T06:28:12.050Z,100610.41
2022-08-05T06:38:36.487Z,100613.34
2022-08-05T06:48:55.760Z,100616.84
2022-08-05T06:59:01.545Z,100615.56
2022-08-05T07:09:04.948Z,100619.50
2022-08-05T07:19:07.301Z,100620.69
2022-08-05T07:29:10.496Z,100618.44
2022-08-05T07:39:24.704Z,100616.38
2022-08-05T07:49:43.497Z,100606.44
2022-08-05T07:59:57.622Z,100610.41
2022-08-05T08:10:00.174Z,100601.97
2022-08-05T08:20:21.617Z,100608.03
2022-08-05T08:30:40.751Z,100603.78
2022-08-05T08:40:51.688Z,100614.13
2022-08-05T08:51:22.465Z,100605.63
2022-08-05T09:01:18.854Z,100592.56
2022-08-05T09:11:51.698Z,100581.00
2022-08-05T09:22:23.073Z,100563.28
2022-08-05T09:32:51.218Z,100547.19
2022-08-05T09:42:42.176Z,100543.72
2022-08-05T09:52:57.980Z,100541.19
2022-08-05T10:03:09.969Z,100535.09
2022-08-05T10:13:25.794Z,100523.66
2022-08-05T10:23:58.754Z,100520.88
2022-08-05T10:42:33.882Z,100498.84
2022-08-05T10:52:54.021Z,100486.69
2022-08-05T11:03:25.285Z,100485.28
2022-08-05T11:13:54.944Z,100474.13
2022-08-05T11:24:29.799Z,100472.69
2022-08-05T11:34:51.446Z,100470.94
2022-08-05T11:45:05.455Z,100449.63
2022-08-05T11:55:10.610Z,100446.47
2022-08-05T12:05:36.478Z,100444.78
2022-08-05T12:15:49.836Z,100445.56
2022-08-05T12:25:56.969Z,100431.88
2022-08-05T12:36:01.172Z,100434.34
2022-08-05T12:46:03.864Z,100414.97
2022-08-05T12:56:35.365Z,100401.53
2022-08-05T13:06:51.575Z,100388.66
2022-08-05T13:16:57.012Z,100385.66
2022-08-05T13:26:59.898Z,100377.00
2022-08-05T13:37:04.055Z,100376.69
2022-08-05T13:47:09.770Z,100359.44
2022-08-05T13:57:14.938Z,100353.56
2022-08-05T14:07:26.514Z,100336.19
2022-08-05T14:17:45.803Z,100328.31
2022-08-05T14:27:51.580Z,100319.09
2022-08-05T14:37:55.680Z,100320.63
2022-08-05T14:48:05.455Z,100301.09
2022-08-05T14:58:13.707Z,100296.97
2022-08-05T15:08:58.463Z,100280.94
2022-08-05T15:18:39.695Z,100277.16
2022-08-05T15:28:43.971Z,100276.94
2022-08-05T15:38:47.075Z,100268.53
2022-08-05T15:48:57.958Z,100264.66
2022-08-05T15:59:07.401Z,100253.06
2022-08-05T16:09:10.164Z,100256.09
2022-08-05T16:19:25.475Z,100250.50
2022-08-05T16:29:37.344Z,100250.31
2022-08-05T16:40:05.567Z,100253.06
2022-08-05T16:50:06.954Z,100247.97
2022-08-05T17:00:14.266Z,100247.47
2022-08-05T17:10:30.473Z,100255.78
2022-08-05T17:20:33.729Z,100256.38
2022-08-05T17:30:42.496Z,100274.94
2022-08-05T17:40:52.818Z,100283.91
2022-08-05T17:50:55.678Z,100287.16
2022-08-05T18:00:58.660Z,100296.88
2022-08-05T18:11:04.071Z,100278.53
2022-08-05T18:21:13.407Z,100299.81
2022-08-05T18:31:24.132Z,100304.91
2022-08-05T18:41:53.481Z,100316.13
2022-08-05T18:52:10.831Z,100317.25
2022-08-05T19:02:28.210Z,100312.50
2022-08-05T19:12:39.150Z,100329.22
2022-08-05T19:22:44.795Z,100322.88
2022-08-05T19:32:48.106Z,100331.97
2022-08-05T19:43:04.607Z,100326.78
2022-08-05T19:53:10.442Z,100333.84
2022-08-05T20:03:14.034Z,100324.38
2022-08-05T20:13:17.741Z,100337.88
2022-08-05T20:23:20.902Z,100330.84
2022-08-05T20:33:23.776Z,100325.34
2022-08-05T20:43:39.814Z,100325.84
2022-08-05T20:53:56.185Z,100334.66
2022-08-05T21:03:59.677Z,100332.25
2022-08-05T21:14:02.691Z,100336.09
2022-08-05T21:24:07.410Z,100337.47
2022-08-05T21:34:16.054Z,100329.09
2022-08-05T21:44:18.865Z,100334.97
2022-08-05T21:54:30.818Z,100343.22
2022-08-05T22:04:33.623Z,100342.22
2022-08-05T22:14:37.905Z,100339.53
2022-08-05T22:24:59.534Z,100335.53
2022-08-05T22:35:02.269Z,100340.16
2022-08-05T22:45:07.076Z,100350.94
2022-08-05T22:55:19.149Z,100346.41
2022-08-05T23:05:23.898Z,100336.06
2022-08-05T23:15:35.364Z,100321.78
2022-08-05T23:25:51.550Z,100315.88
2022-08-05T23:35:56.700Z,100323.44
2022-08-05T23:45:59.711Z,100307.44
2022-08-05T23:56:03.675Z,100307.16
